Time;durP1;ratioP1;P1;durP2;ratioP2;P2;SDS_P1;SDS_P2;PMS_P1;PMS_P2;Temp;Humidity;BMP_temperature;BMP_pressure;BME280_temperature;BME280_humidity;BME280_pressure;Samples;Min_cycle;Max_cycle;Signal;HPM_P1;HPM_P2
2021/05/25 00:01:33;;;;;;;159.07;81.12;;;;;;;13.28;100.00;100472.97;1729787;82;21062;-72
2021/05/25 00:04:00;;;;;;;115.52;58.28;;;;;;;13.25;100.00;100476.87;1743745;81;21586;-72
2021/05/25 00:06:27;;;;;;;111.03;56.20;;;;;;;13.22;100.00;100481.81;1741238;82;21076;-72
2021/05/25 00:08:54;;;;;;;128.90;64.80;;;;;;;13.24;100.00;100490.12;1741211;82;21020;-72
2021/05/25 00:11:20;;;;;;;34.88;21.52;;;;;;;13.28;100.00;100500.12;1741033;82;21060;-72
2021/05/25 00:13:48;;;;;;;54.08;27.87;;;;;;;13.29;100.00;100497.72;1741196;82;21132;-72
2021/05/25 00:16:15;;;;;;;31.90;18.75;;;;;;;13.25;100.00;100497.75;1741213;82;21080;-72
2021/05/25 00:18:42;;;;;;;28.47;18.60;;;;;;;13.23;100.00;100502.00;1741205;82;21032;-72
2021/05/25 00:21:09;;;;;;;24.05;16.35;;;;;;;13.24;100.00;100506.42;1768249;81;21033;-72
2021/05/25 00:23:35;;;;;;;47.23;27.75;;;;;;;13.26;100.00;100513.00;1770029;81;21065;-71
2021/05/25 00:26:03;;;;;;;65.57;35.75;;;;;;;13.26;100.00;100512.52;1704224;84;21527;-72
2021/05/25 00:28:30;;;;;;;30.72;18.80;;;;;;;13.24;100.00;100513.21;1704475;84;21057;-72
2021/05/25 00:30:57;;;;;;;23.10;15.32;;;;;;;13.24;100.00;100520.00;1704345;84;21025;-72
2021/05/25 00:33:24;;;;;;;23.25;16.30;;;;;;;13.29;100.00;100520.80;1704526;84;21057;-72
2021/05/25 00:35:53;;;;;;;22.62;15.48;;;;;;;13.32;100.00;100510.16;1704244;84;21125;-72
2021/05/25 00:38:19;;;;;;;22.35;15.70;;;;;;;13.33;100.00;100522.16;1704204;84;21041;-71
2021/05/25 00:40:46;;;;;;;23.10;16.67;;;;;;;13.36;100.00;100528.61;1769940;81;21057;-71
2021/05/25 00:43:13;;;;;;;24.32;15.88;;;;;;;13.38;100.00;100524.36;1704429;84;21085;-71
2021/05/25 00:45:40;;;;;;;22.82;16.20;;;;;;;13.43;100.00;100531.47;1704327;84;21531;-71
2021/05/25 00:48:09;;;;;;;26.02;17.62;;;;;;;13.45;100.00;100530.78;1704253;84;21583;-71
2021/05/25 00:50:37;;;;;;;23.60;16.97;;;;;;;13.45;100.00;100532.97;1770178;81;20986;-71
2021/05/25 00:53:04;;;;;;;22.70;16.40;;;;;;;13.45;100.00;100544.36;1704317;84;21550;-72
2021/05/25 00:55:34;;;;;;;25.15;17.82;;;;;;;13.46;100.00;100541.47;1704311;84;21090;-72
2021/05/25 00:58:04;;;;;;;22.15;15.58;;;;;;;13.49;100.00;100548.41;1769918;81;21528;-71
2021/05/25 01:00:39;;;;;;;27.02;17.90;;;;;;;13.52;100.00;100548.58;1769965;81;21112;-71
2021/05/25 01:03:07;;;;;;;26.20;17.00;;;;;;;13.52;100.00;100554.02;1684091;84;21019;-72
2021/05/25 01:05:35;;;;;;;23.83;15.58;;;;;;;13.53;100.00;100559.76;1741100;81;21135;-72
2021/05/25 01:08:03;;;;;;;23.42;15.25;;;;;;;13.54;100.00;100560.95;1741283;82;21077;-73
2021/05/25 01:13:04;;;;;;;21.45;13.40;;;;;;;13.53;100.00;100569.27;1684504;84;21603;-72
2021/05/25 01:15:31;;;;;;;19.23;11.78;;;;;;;13.49;100.00;100560.62;1684902;84;21062;-72
2021/05/25 01:17:59;;;;;;;19.02;10.80;;;;;;;13.44;100.00;100562.53;1685904;84;21599;-72
2021/05/25 01:20:29;;;;;;;19.75;11.43;;;;;;;13.44;100.00;100568.49;1703679;83;21053;-72
2021/05/25 01:22:56;;;;;;;18.75;10.00;;;;;;;13.44;100.00;100567.97;1702805;84;21112;-72
2021/05/25 01:25:23;;;;;;;19.77;11.55;;;;;;;13.45;100.00;100562.85;1702849;84;21048;-72
2021/05/25 01:27:54;;;;;;;19.40;12.65;;;;;;;13.43;100.00;100560.83;1704089;84;21049;-72
2021/05/25 01:30:25;;;;;;;19.20;11.97;;;;;;;13.43;100.00;100564.06;1703350;84;21077;-72
2021/05/25 01:32:51;;;;;;;18.90;11.25;;;;;;;13.43;100.00;100564.06;1714026;83;21574;-73
2021/05/25 01:35:18;;;;;;;20.50;11.28;;;;;;;13.45;100.00;100554.70;1712142;83;21100;-73
2021/05/25 01:37:47;;;;;;;20.55;12.43;;;;;;;13.44;100.00;100552.19;1703320;84;21057;-73
2021/05/25 01:40:14;;;;;;;21.23;13.62;;;;;;;13.42;100.00;100554.21;1713084;83;21072;-71
2021/05/25 01:42:41;;;;;;;23.62;14.70;;;;;;;13.43;100.00;100558.63;1712727;83;21052;-71
2021/05/25 01:45:13;;;;;;;23.22;13.98;;;;;;;13.41;100.00;100561.52;1702410;84;21619;-71
2021/05/25 01:47:40;;;;;;;21.62;13.10;;;;;;;13.42;100.00;100552.85;1680659;84;21119;-72
2021/05/25 01:50:11;;;;;;;25.52;14.68;;;;;;;13.41;100.00;100550.66;1711420;83;21129;-71
2021/05/25 01:55:41;;;;;;;20.20;13.45;;;;;;;13.40;100.00;100546.76;1694514;84;21568;-71
2021/05/25 01:58:20;;;;;;;22.10;14.30;;;;;;;13.38;100.00;100550.17;1694655;85;21093;-72
2021/05/25 02:00:50;;;;;;;20.08;13.30;;;;;;;13.38;100.00;100546.93;1694531;84;21085;-71
2021/05/25 02:03:18;;;;;;;23.38;14.70;;;;;;;13.40;100.00;100553.55;1633893;87;21677;-72
2021/05/25 02:05:47;;;;;;;23.73;14.35;;;;;;;13.42;100.00;100558.28;1633296;87;21124;-72
2021/05/25 02:08:16;;;;;;;22.85;13.60;;;;;;;13.41;100.00;100545.23;1633512;88;21665;-73
2021/05/25 02:10:51;;;;;;;19.25;12.68;;;;;;;13.42;100.00;100551.01;1680926;85;21505;-72
2021/05/25 02:13:23;;;;;;;19.57;12.53;;;;;;;13.42;100.00;100546.93;1689580;85;21091;-72
2021/05/25 02:15:53;;;;;;;21.12;12.70;;;;;;;13.43;100.00;100549.13;1689359;85;21000;-71
2021/05/25 02:18:28;;;;;;;19.12;12.35;;;;;;;13.44;100.00;100554.39;1689519;85;21052;-72
2021/05/25 02:21:00;;;;;;;19.52;12.98;;;;;;;13.48;100.00;100558.95;1704061;83;21085;-73
2021/05/25 02:23:27;;;;;;;21.77;13.43;;;;;;;13.52;100.00;100551.30;1683850;84;21092;-73
2021/05/25 02:25:54;;;;;;;20.12;12.90;;;;;;;13.52;100.00;100560.80;1706940;84;21005;-73
2021/05/25 02:28:21;;;;;;;19.75;11.75;;;;;;;13.50;100.00;100561.50;1706851;84;21586;-72
2021/05/25 02:30:49;;;;;;;19.82;11.60;;;;;;;13.52;100.00;100558.09;1706693;84;21108;-72
2021/05/25 02:33:20;;;;;;;18.85;11.35;;;;;;;13.54;100.00;100561.47;1706851;84;21104;-72
2021/05/25 02:35:50;;;;;;;20.75;12.03;;;;;;;13.58;100.00;100565.02;1706981;84;21072;-72
2021/05/25 02:38:17;;;;;;;20.57;12.88;;;;;;;13.62;100.00;100568.23;1703453;84;22170;-72
2021/05/25 02:40:47;;;;;;;20.70;12.90;;;;;;;13.63;100.00;100568.05;1706902;84;21571;-72
2021/05/25 02:43:15;;;;;;;23.77;12.60;;;;;;;13.64;100.00;100571.08;1706866;84;21527;-73
2021/05/25 02:45:43;;;;;;;19.55;12.20;;;;;;;13.67;100.00;100569.90;1706813;84;21046;-73
2021/05/25 02:48:11;;;;;;;18.95;12.10;;;;;;;13.68;100.00;100568.33;1706782;84;21606;-72
2021/05/25 02:50:37;;;;;;;19.70;12.53;;;;;;;13.71;100.00;100573.11;1706964;84;21058;-73
2021/05/25 02:53:04;;;;;;;20.15;12.35;;;;;;;13.73;100.00;100577.33;1689356;84;21482;-72
2021/05/25 02:55:34;;;;;;;21.52;12.35;;;;;;;13.74;100.00;100576.31;1685772;84;21072;-72
2021/05/25 02:58:01;;;;;;;20.40;12.05;;;;;;;13.75;100.00;100578.50;1685647;85;21043;-73
2021/05/25 03:00:33;;;;;;;19.67;11.90;;;;;;;13.76;100.00;100573.42;1721303;82;21586;-73
2021/05/25 03:03:01;;;;;;;20.65;13.28;;;;;;;13.75;100.00;100584.78;1730577;81;21008;-73
2021/05/25 03:05:27;;;;;;;19.23;12.80;;;;;;;13.73;100.00;100581.40;1725987;81;21104;-73
2021/05/25 03:07:58;;;;;;;20.82;12.78;;;;;;;13.72;100.00;100589.20;1725932;83;21049;-73
2021/05/25 03:10:30;;;;;;;19.27;13.18;;;;;;;13.74;100.00;100593.11;1725972;83;21064;-73
2021/05/25 03:12:56;;;;;;;20.52;13.28;;;;;;;13.75;100.00;100592.09;1725912;83;21016;-73
2021/05/25 03:15:31;;;;;;;22.05;13.60;;;;;;;13.76;100.00;100600.59;1725890;83;21044;-73
2021/05/25 03:17:59;;;;;;;20.95;14.20;;;;;;;13.76;100.00;100596.52;1683781;85;21078;-74
2021/05/25 03:20:27;;;;;;;20.75;13.60;;;;;;;13.76;100.00;100601.95;1724125;82;21563;-74
2021/05/25 03:22:54;;;;;;;19.90;12.30;;;;;;;13.74;100.00;100596.70;1759650;81;21053;-74
2021/05/25 03:25:21;;;;;;;20.35;12.78;;;;;;;13.74;100.00;100595.83;1759351;81;21055;-74
2021/05/25 03:27:49;;;;;;;21.35;13.38;;;;;;;13.75;100.00;100595.66;1759392;81;21616;-73
2021/05/25 03:30:21;;;;;;;23.07;13.22;;;;;;;13.78;100.00;100594.47;1759604;81;21446;-73
2021/05/25 03:32:47;;;;;;;21.33;12.63;;;;;;;13.77;100.00;100597.67;1692197;85;21609;-74
2021/05/25 03:35:16;;;;;;;19.07;10.68;;;;;;;13.77;100.00;100593.59;1692262;85;21530;-74
2021/05/25 03:37:43;;;;;;;23.52;12.23;;;;;;;13.81;100.00;100592.23;1692193;85;21071;-74
2021/05/25 03:40:13;;;;;;;21.07;12.55;;;;;;;13.85;100.00;100592.20;1692414;85;21064;-74
2021/05/25 03:42:47;;;;;;;19.35;12.03;;;;;;;13.91;100.00;100588.44;1692245;85;21092;-74
2021/05/25 03:45:15;;;;;;;20.82;11.88;;;;;;;13.96;100.00;100587.39;1643215;87;21081;-74
2021/05/25 03:47:41;;;;;;;20.75;13.10;;;;;;;13.99;100.00;100593.83;1645413;87;21567;-74
2021/05/25 03:50:10;;;;;;;20.02;12.65;;;;;;;14.00;100.00;100584.11;1645379;86;21132;-74
2021/05/25 03:52:40;;;;;;;20.32;12.23;;;;;;;13.99;100.00;100591.11;1645471;87;21080;-72
2021/05/25 04:00:08;;;;;;;18.82;11.55;;;;;;;14.17;100.00;100594.38;1606960;89;21089;-73
2021/05/25 04:02:35;;;;;;;18.82;11.10;;;;;;;14.24;100.00;100596.70;1593222;89;21033;-73
2021/05/25 04:05:02;;;;;;;21.02;12.20;;;;;;;14.31;100.00;100591.91;1578308;89;21156;-73
2021/05/25 04:07:28;;;;;;;18.80;11.30;;;;;;;14.37;100.00;100597.44;1574842;91;21588;-73
2021/05/25 04:09:55;;;;;;;18.60;11.73;;;;;;;14.43;100.00;100595.37;1574789;91;21057;-74
2021/05/25 04:12:21;;;;;;;19.65;11.68;;;;;;;14.50;100.00;100600.06;1574829;91;21025;-73
2021/05/25 04:14:50;;;;;;;19.45;12.05;;;;;;;14.53;100.00;100597.81;1572704;90;21067;-74
2021/05/25 04:17:17;;;;;;;19.85;12.15;;;;;;;14.58;100.00;100605.48;1570174;91;21605;-76
2021/05/25 04:19:44;;;;;;;19.73;12.28;;;;;;;14.60;100.00;100604.77;1569874;91;21031;-73
2021/05/25 04:22:10;;;;;;;17.05;11.38;;;;;;;14.66;100.00;100614.94;1569096;91;21039;-73
2021/05/25 04:24:39;;;;;;;18.23;11.05;;;;;;;14.73;100.00;100617.26;1568833;91;21577;-74
2021/05/25 04:27:06;;;;;;;22.95;11.83;;;;;;;14.86;100.00;100617.14;1569320;91;21087;-74
2021/05/25 04:29:33;;;;;;;17.67;11.50;;;;;;;15.05;100.00;100613.02;1569148;91;21120;-74
2021/05/25 04:32:01;;;;;;;19.12;12.07;;;;;;;15.26;100.00;100606.83;1568878;91;21211;-74
2021/05/25 04:34:28;;;;;;;18.92;12.25;;;;;;;15.47;100.00;100606.91;1570968;89;21099;-74
2021/05/25 04:36:55;;;;;;;17.40;11.33;;;;;;;15.57;100.00;100606.63;1667316;85;21634;-73
2021/05/25 04:39:22;;;;;;;18.45;11.08;;;;;;;15.67;100.00;100603.59;1679160;85;21061;-74
2021/05/25 04:41:48;;;;;;;18.27;11.15;;;;;;;15.78;100.00;100603.15;1679219;85;21044;-73
2021/05/25 04:44:15;;;;;;;16.12;10.28;;;;;;;15.86;100.00;100601.66;1679370;85;21134;-74
2021/05/25 04:46:42;;;;;;;18.00;11.40;;;;;;;15.93;100.00;100596.28;1679319;85;21080;-74
2021/05/25 04:49:11;;;;;;;16.52;10.35;;;;;;;16.05;100.00;100600.19;1679224;85;21065;-74
2021/05/25 04:51:40;;;;;;;16.40;10.40;;;;;;;16.25;100.00;100597.66;1679188;85;21081;-75
2021/05/25 04:54:10;;;;;;;18.40;11.83;;;;;;;16.45;100.00;100591.55;1707527;81;21003;-73
2021/05/25 04:56:42;;;;;;;19.17;12.37;;;;;;;16.62;100.00;100590.23;1760727;81;21060;-74
2021/05/25 04:59:15;;;;;;;19.42;12.90;;;;;;;16.66;100.00;100581.98;1760270;81;21424;-74
2021/05/25 05:01:51;;;;;;;19.87;12.30;;;;;;;16.67;100.00;100591.02;1766160;80;21033;-73
2021/05/25 05:04:25;;;;;;;23.07;13.88;;;;;;;16.70;100.00;100601.02;1737748;80;21205;-74
2021/05/25 05:07:01;;;;;;;23.95;14.13;;;;;;;16.76;100.00;100598.55;1777130;81;21180;-74
2021/05/25 05:09:39;;;;;;;28.40;16.87;;;;;;;16.84;100.00;100595.17;1776224;80;21033;-74
2021/05/25 05:12:16;;;;;;;27.42;17.23;;;;;;;17.03;100.00;100603.20;1728538;83;21037;-74
2021/05/25 05:14:53;;;;;;;22.45;14.38;;;;;;;17.16;100.00;100598.33;1775339;80;21147;-73
2021/05/25 05:17:28;;;;;;;25.12;16.17;;;;;;;17.10;100.00;100596.39;1728845;83;21084;-75
2021/05/25 05:20:06;;;;;;;32.90;24.98;;;;;;;17.07;100.00;100595.45;1775349;81;20989;-73
2021/05/25 05:22:43;;;;;;;31.85;21.42;;;;;;;17.22;100.00;100589.31;1781748;80;21541;-73
2021/05/25 05:25:20;;;;;;;154.15;132.87;;;;;;;17.46;100.00;100581.68;1788600;80;21019;-77
2021/05/25 05:27:57;;;;;;;35.98;27.27;;;;;;;17.65;100.00;100584.16;1768077;80;21027;-81
2021/05/25 05:30:35;;;;;;;23.20;14.73;;;;;;;17.85;100.00;100585.62;1767480;80;21035;-82
2021/05/25 05:33:14;;;;;;;35.13;25.75;;;;;;;17.98;100.00;100584.84;1800350;80;21097;-76
2021/05/25 05:35:52;;;;;;;25.52;18.17;;;;;;;17.92;100.00;100588.38;1765881;81;21007;-79
2021/05/25 05:38:31;;;;;;;213.37;190.60;;;;;;;17.88;100.00;100598.89;1764281;81;21516;-79
2021/05/25 05:41:09;;;;;;;19.65;12.28;;;;;;;17.83;100.00;100598.66;1763177;81;21496;-80
2021/05/25 05:43:47;;;;;;;16.93;10.15;;;;;;;17.95;100.00;100601.12;1765017;80;20975;-78
2021/05/25 05:46:26;;;;;;;98.40;88.65;;;;;;;18.17;100.00;100590.88;1766618;80;21537;-78
2021/05/25 05:49:05;;;;;;;18.48;11.20;;;;;;;18.46;100.00;100586.59;1765375;80;21003;-76
2021/05/25 05:51:43;;;;;;;16.80;10.03;;;;;;;18.74;100.00;100580.91;1759772;80;21031;-79
2021/05/25 05:54:23;;;;;;;16.75;10.15;;;;;;;19.03;100.00;100567.83;1758293;80;21141;-82
2021/05/25 05:57:04;;;;;;;17.62;10.03;;;;;;;19.33;100.00;100559.94;1768872;81;21049;-82
2021/05/25 05:59:46;;;;;;;16.85;9.78;;;;;;;19.48;100.00;100547.36;1703388;84;21089;-77
2021/05/25 06:02:28;;;;;;;18.05;11.22;;;;;;;19.64;100.00;100541.36;1769760;80;21353;-81
2021/05/25 06:05:12;;;;;;;14.80;8.38;;;;;;;19.58;100.00;100535.90;1737596;79;21048;-82
2021/05/25 06:07:56;;;;;;;38.67;31.27;;;;;;;19.64;100.00;100533.13;1732055;83;21032;-75
2021/05/25 06:10:44;;;;;;;111.32;99.90;;;;;;;19.66;100.00;100539.23;1738341;82;21586;-82
2021/05/25 06:13:29;;;;;;;12.18;7.70;;;;;;;19.93;100.00;100538.28;1736377;82;21138;-81
2021/05/25 06:16:16;;;;;;;14.15;8.45;;;;;;;20.16;100.00;100535.80;1765074;79;21071;-71
2021/05/25 06:19:01;;;;;;;12.80;7.62;;;;;;;20.29;100.00;100526.09;1728916;79;21009;-68
2021/05/25 06:21:45;;;;;;;11.68;7.33;;;;;;;20.54;100.00;100532.63;1768450;81;21495;-70
2021/05/25 06:24:31;;;;;;;12.93;7.55;;;;;;;20.75;100.00;100528.16;1701540;83;21545;-70
2021/05/25 06:27:16;;;;;;;19.92;8.50;;;;;;;20.99;100.00;100533.83;1721192;83;21068;-69
2021/05/25 06:30:01;;;;;;;25.20;11.25;;;;;;;21.20;100.00;100531.16;1750335;79;21029;-70
2021/05/25 06:32:47;;;;;;;30.55;12.73;;;;;;;21.26;100.00;100540.40;1742991;81;21115;-74
2021/05/25 06:35:25;;;;;;;46.90;19.75;;;;;;;21.33;100.00;100527.41;1695710;83;21058;-70
2021/05/25 06:37:57;;;;;;;40.25;20.60;;;;;;;21.19;100.00;100530.30;1777404;81;21003;-75
2021/05/25 06:40:29;;;;;;;67.97;40.38;;;;;;;21.26;100.00;100528.86;1751556;81;21008;-70
2021/05/25 06:42:59;;;;;;;16.55;8.80;;;;;;;21.22;100.00;100524.35;1751239;81;21142;-73
2021/05/25 06:45:28;;;;;;;15.15;8.45;;;;;;;21.19;100.00;100528.09;1769938;81;21594;-74
2021/05/25 06:47:55;;;;;;;21.95;16.17;;;;;;;21.29;100.00;100527.58;1758116;81;21021;-73
2021/05/25 06:50:22;;;;;;;14.60;6.58;;;;;;;21.41;100.00;100525.73;1753116;81;21017;-74
2021/05/25 06:52:49;;;;;;;188.85;96.70;;;;;;;21.64;100.00;100522.80;1687882;84;21603;-72
2021/05/25 06:55:16;;;;;;;26.77;13.55;;;;;;;21.82;100.00;100515.89;1755557;81;21581;-74
2021/05/25 06:57:43;;;;;;;14.35;5.72;;;;;;;21.92;100.00;100526.31;1752584;81;20998;-73
2021/05/25 07:00:14;;;;;;;10.55;5.60;;;;;;;22.16;100.00;100519.80;1753279;81;21029;-75
2021/05/25 07:02:40;;;;;;;53.05;43.25;;;;;;;22.32;100.00;100516.10;1759723;81;21181;-69
2021/05/25 07:05:08;;;;;;;74.55;34.92;;;;;;;22.49;100.00;100513.50;1754958;81;21092;-71
2021/05/25 07:07:35;;;;;;;32.65;15.50;;;;;;;22.76;100.00;100512.47;1740940;81;21052;-71
2021/05/25 07:10:03;;;;;;;9.10;4.60;;;;;;;22.89;100.00;100505.31;1750386;81;21010;-72
2021/05/25 07:12:30;;;;;;;7.97;4.42;;;;;;;23.13;100.00;100497.88;1748709;81;21016;-73
2021/05/25 07:14:56;;;;;;;20.50;8.50;;;;;;;23.39;100.00;100492.05;1756455;81;21029;-72
2021/05/25 07:17:23;;;;;;;12.43;4.80;;;;;;;23.38;100.00;100492.60;1766421;81;21516;-71
2021/05/25 07:19:51;;;;;;;7.90;4.30;;;;;;;23.26;100.00;100499.52;1761728;81;21555;-72
2021/05/25 07:22:21;;;;;;;7.97;3.87;;;;;;;23.24;100.00;100495.34;1701329;84;21599;-71
2021/05/25 07:24:49;;;;;;;7.65;4.42;;;;;;;23.29;100.00;100488.01;1771719;81;21085;-70
2021/05/25 07:27:17;;;;;;;9.70;3.67;;;;;;;23.46;100.00;100491.36;1703386;84;21061;-69
2021/05/25 07:29:44;;;;;;;8.85;4.35;;;;;;;23.48;100.00;100484.53;1703239;84;21091;-69
2021/05/25 07:32:11;;;;;;;8.93;3.85;;;;;;;23.64;100.00;100491.19;1746700;81;21048;-70
2021/05/25 07:34:38;;;;;;;24.10;12.00;;;;;;;23.92;100.00;100490.91;1743384;81;21088;-73
2021/05/25 07:37:06;;;;;;;13.72;5.00;;;;;;;24.19;100.00;100486.12;1764414;81;21507;-70
2021/05/25 07:39:32;;;;;;;5.97;3.90;;;;;;;24.27;100.00;100491.21;1756831;81;21005;-71
2021/05/25 07:42:02;;;;;;;7.33;3.98;;;;;;;24.40;100.00;100492.79;1763139;81;21040;-74
2021/05/25 07:44:29;;;;;;;34.23;26.57;;;;;;;24.50;100.00;100499.87;1768593;81;21045;-75
2021/05/25 07:46:57;;;;;;;16.27;7.85;;;;;;;24.42;100.00;100497.00;1764062;81;21584;-76
2021/05/25 07:49:24;;;;;;;26.05;16.73;;;;;;;24.53;100.00;100495.78;1771635;81;21543;-77
2021/05/25 07:51:51;;;;;;;62.23;44.55;;;;;;;24.88;100.00;100490.49;1771404;81;21519;-74
2021/05/25 07:54:18;;;;;;;10.45;5.22;;;;;;;25.09;100.00;100500.77;1771752;81;21040;-72
2021/05/25 07:56:45;;;;;;;17.23;5.60;;;;;;;25.17;100.00;100502.24;1767476;81;21025;-71
2021/05/25 07:59:14;;;;;;;21.65;9.50;;;;;;;25.24;100.00;100500.12;1736062;81;20993;-73
2021/05/25 08:01:41;;;;;;;13.50;5.65;;;;;;;25.09;100.00;100496.62;1765867;81;20985;-71
2021/05/25 08:04:09;;;;;;;23.42;9.43;;;;;;;24.94;100.00;100492.25;1758768;81;20997;-70
2021/05/25 08:06:36;;;;;;;25.92;10.95;;;;;;;24.62;100.00;100488.20;1757788;80;21639;-71
2021/05/25 08:09:06;;;;;;;16.10;6.30;;;;;;;24.41;100.00;100487.57;1700728;83;21083;-69
2021/05/25 08:11:35;;;;;;;19.40;6.60;;;;;;;24.44;100.00;100478.23;1770386;80;21044;-72
2021/05/25 08:14:07;;;;;;;13.50;6.53;;;;;;;24.45;100.00;100480.44;1773133;80;21028;-69
2021/05/25 08:16:36;;;;;;;18.70;6.47;;;;;;;24.47;100.00;100478.28;1778937;80;21056;-73
2021/05/25 08:21:30;;;;;;;14.63;7.60;;;;;;;24.18;100.00;100470.06;1778629;80;21032;-70
2021/05/25 08:23:58;;;;;;;23.25;10.08;;;;;;;23.72;100.00;100480.83;1754973;82;21610;-70
2021/05/25 08:26:27;;;;;;;20.40;9.20;;;;;;;23.34;100.00;100482.29;1771416;80;21021;-70
2021/05/25 08:28:54;;;;;;;34.33;17.75;;;;;;;23.31;100.00;100481.70;1757599;80;20977;-71
2021/05/25 08:31:21;;;;;;;11.20;5.17;;;;;;;23.38;100.00;100487.08;1755185;82;21048;-71
2021/05/25 08:33:48;;;;;;;14.43;4.80;;;;;;;23.47;100.00;100484.78;1770803;80;21185;-70
2021/05/25 08:36:18;;;;;;;22.15;10.40;;;;;;;23.53;100.00;100479.64;1772401;80;21711;-71
2021/05/25 08:38:45;;;;;;;8.70;3.52;;;;;;;23.53;100.00;100488.47;1771875;80;20989;-73
2021/05/25 08:41:11;;;;;;;16.25;6.10;;;;;;;23.49;100.00;100483.43;1783731;80;21047;-73
2021/05/25 08:43:41;;;;;;;186.92;72.62;;;;;;;23.69;100.00;100486.28;1762381;80;21153;-73
2021/05/25 08:46:08;;;;;;;306.57;121.05;;;;;;;24.00;100.00;100469.77;1710583;80;20972;-73
2021/05/25 08:48:40;;;;;;;86.15;36.28;;;;;;;24.18;100.00;100469.23;1778154;80;21509;-72
2021/05/25 08:51:08;;;;;;;;;;;;;;;24.38;100.00;100464.58;1758594;80;21019;-71
2021/05/25 08:53:35;;;;;;;39.38;9.73;;;;;;;24.84;100.00;100459.75;1755153;82;20161;-71
2021/05/25 08:56:03;;;;;;;70.20;32.13;;;;;;;25.28;100.00;100464.49;1768370;80;21525;-70
2021/05/25 08:58:30;;;;;;;71.85;38.70;;;;;;;25.41;100.00;100458.57;1745328;82;21321;-73
2021/05/25 09:00:58;;;;;;;25.23;12.15;;;;;;;25.13;100.00;100458.20;1780167;79;21025;-72
2021/05/25 09:03:24;;;;;;;24.90;10.65;;;;;;;25.06;100.00;100460.33;1769500;80;21016;-73
2021/05/25 09:06:06;;;;;;;14.83;4.47;;;;;;;24.97;100.00;100462.16;1784232;80;21613;-69
2021/05/25 09:08:26;;;;;;;46.48;22.48;;;;;;;24.92;100.00;100452.40;1781807;80;21048;-70
2021/05/25 09:10:59;;;;;;;30.27;14.10;;;;;;;24.71;100.00;100466.48;1755292;80;21064;-70
2021/05/25 09:13:24;;;;;;;18.27;5.45;;;;;;;24.39;100.00;100453.83;1773417;80;21039;-69
2021/05/25 09:15:54;;;;;;;13.15;3.85;;;;;;;24.34;100.00;100464.24;1776563;80;21012;-69
2021/05/25 09:21:04;;;;;;;17.23;4.30;;;;;;;24.76;100.00;100458.83;1587315;90;21113;-70
2021/05/25 09:23:39;;;;;;;35.33;8.35;;;;;;;24.89;100.00;100447.93;1622645;88;21058;-71
2021/05/25 09:26:11;;;;;;;26.85;8.73;;;;;;;25.06;100.00;100461.72;1621989;88;21165;-71
2021/05/25 09:29:06;;;;;;;70.22;34.48;;;;;;;25.27;100.00;100462.28;1622513;88;21025;-72
2021/05/25 09:31:44;;;;;;;27.22;13.88;;;;;;;25.70;100.00;100464.68;1616762;88;21059;-70
2021/05/25 09:34:21;;;;;;;19.82;8.35;;;;;;;25.90;100.00;100465.97;1610223;88;21257;-69
2021/05/25 09:37:09;;;;;;;13.60;4.90;;;;;;;26.19;100.00;100465.69;1624306;87;21207;-73
2021/05/25 09:39:43;;;;;;;13.95;4.78;;;;;;;26.76;100.00;100466.41;1597599;90;21144;-71
2021/05/25 09:42:12;;;;;;;20.27;9.28;;;;;;;27.01;100.00;100457.94;1611766;88;21585;-72
2021/05/25 09:45:00;;;;;;;12.68;5.87;;;;;;;27.10;100.00;100459.08;1623769;88;21071;-71
2021/05/25 09:47:49;;;;;;;13.38;5.85;;;;;;;27.21;100.00;100452.45;1621537;88;21133;-74
2021/05/25 09:50:17;;;;;;;10.10;6.22;;;;;;;27.43;100.00;100448.13;1608877;88;21170;-75
2021/05/25 09:53:08;;;;;;;56.25;32.90;;;;;;;27.42;100.00;100456.73;1617167;88;21499;-72
2021/05/25 09:56:00;;;;;;;15.83;7.45;;;;;;;27.02;100.00;100463.22;1615217;88;21563;-73
2021/05/25 09:58:37;;;;;;;15.50;5.80;;;;;;;26.41;100.00;100465.59;1614933;88;21069;-72
2021/05/25 10:01:07;;;;;;;8.08;3.95;;;;;;;26.49;100.00;100460.95;1612542;88;21051;-75
2021/05/25 10:03:52;;;;;;;11.65;4.92;;;;;;;26.89;100.00;100453.99;1616474;88;21282;-73
2021/05/25 10:06:19;;;;;;;10.25;4.58;;;;;;;27.15;100.00;100455.51;1613606;88;21099;-71
2021/05/25 10:08:49;;;;;;;32.23;16.57;;;;;;;27.02;100.00;100456.28;1620127;87;21176;-72
2021/05/25 10:11:16;;;;;;;10.98;4.20;;;;;;;26.53;100.00;100463.47;1636319;87;21060;-71
2021/05/25 10:13:43;;;;;;;5.60;3.27;;;;;;;26.09;100.00;100467.29;1619248;88;21053;-72
2021/05/25 10:16:12;;;;;;;12.23;5.30;;;;;;;25.98;100.00;100459.17;1651463;86;21075;-71
2021/05/25 10:21:13;;;;;;;7.47;4.22;;;;;;;26.71;100.00;100460.83;1745602;82;21000;-73
2021/05/25 10:26:17;;;;;;;12.00;4.33;;;;;;;26.98;100.00;100457.91;1711626;83;21051;-71
2021/05/25 10:28:49;;;;;;;18.10;3.83;;;;;;;27.15;100.00;100456.33;1634806;86;21159;-74
2021/05/25 10:31:35;;;;;;;10.32;3.83;;;;;;;26.97;100.00;100448.47;1598424;88;21099;-71
2021/05/25 10:34:20;;;;;;;84.20;48.68;;;;;;;26.59;100.00;100454.06;1609842;89;21060;-73
2021/05/25 10:36:59;;;;;;;30.85;18.07;;;;;;;26.22;100.00;100454.09;1604983;89;21047;-72
2021/05/25 10:39:43;;;;;;;17.05;6.95;;;;;;;25.97;100.00;100451.95;1578569;91;21562;-72
2021/05/25 10:42:26;;;;;;;34.83;18.87;;;;;;;25.77;100.00;100443.70;1545813;93;21275;-71
2021/05/25 10:45:13;;;;;;;;;;;;;;;25.58;100.00;100448.21;1525445;93;21170;-76
2021/05/25 10:47:50;;;;;;;15.48;7.85;;;;;;;25.36;100.00;100448.83;1558824;91;20238;-73
2021/05/25 10:52:59;;;;;;;17.70;7.00;;;;;;;25.11;100.00;100448.77;1516411;94;21067;-74
2021/05/25 10:55:33;;;;;;;13.20;6.05;;;;;;;25.12;100.00;100442.12;1550932;92;21060;-72
2021/05/25 10:58:02;;;;;;;10.32;5.47;;;;;;;25.19;100.00;100441.39;1554491;92;21111;-70
2021/05/25 11:00:34;;;;;;;8.53;4.08;;;;;;;25.27;100.00;100437.90;1544138;92;21648;-73
2021/05/25 11:03:15;;;;;;;6.55;3.40;;;;;;;25.32;100.00;100431.05;1547977;92;21091;-73
2021/05/25 11:05:58;;;;;;;24.37;12.13;;;;;;;25.38;100.00;100433.61;1505013;95;21146;-72
2021/05/25 11:08:31;;;;;;;21.87;10.28;;;;;;;25.46;100.00;100436.48;1485272;96;21215;-75
2021/05/25 11:11:08;;;;;;;;;;;;;;;25.41;100.00;100431.42;1453721;99;21704;-73
2021/05/25 11:13:41;;;;;;;116.95;57.05;;;;;;;25.23;100.00;100430.63;1483520;97;20227;-74
2021/05/25 11:16:34;;;;;;;26.00;10.40;;;;;;;25.14;100.00;100427.52;1474226;97;21726;-74
2021/05/25 11:19:18;;;;;;;8.08;3.80;;;;;;;25.07;100.00;100428.23;1474482;97;21199;-73
2021/05/25 11:27:35;;;;;;;23.92;9.98;;;;;;;24.87;100.00;100420.52;1441937;95;21200;-73
2021/05/25 11:30:11;;;;;;;16.10;5.03;;;;;;;24.80;100.00;100421.27;1479882;97;21151;-73
2021/05/25 11:32:46;;;;;;;9.45;3.80;;;;;;;24.69;100.00;100420.84;1453364;99;21158;-72
2021/05/25 11:35:22;;;;;;;106.92;43.55;;;;;;;24.58;100.00;100424.02;1413271;100;21142;-73
2021/05/25 11:37:54;;;;;;;44.75;19.95;;;;;;;24.50;100.00;100421.09;1426607;100;21269;-73
2021/05/25 11:40:28;;;;;;;85.75;47.85;;;;;;;24.50;100.00;100424.41;1415772;101;21136;-75
2021/05/25 11:42:55;;;;;;;76.85;44.38;;;;;;;24.40;100.00;100421.80;1409010;101;21108;-74
2021/05/25 11:45:27;;;;;;;27.73;12.47;;;;;;;24.34;100.00;100413.67;1405189;101;21130;-75
2021/05/25 11:48:02;;;;;;;36.15;18.65;;;;;;;24.31;100.00;100420.56;1406210;101;21098;-74
2021/05/25 11:50:39;;;;;;;22.67;9.03;;;;;;;24.24;100.00;100426.25;1398386;101;21156;-77
2021/05/25 11:53:06;;;;;;;13.58;5.75;;;;;;;24.26;100.00;100421.86;1411835;101;21155;-75